sensor_id;sensor_type;location;lat;lon;timestamp;temperature;humidity
27900;DHT22;15243;50.726;7.080;2022-08-19T00:01:32;19.20;99.90
27900;DHT22;15243;50.726;7.080;2022-08-19T00:04:07;19.10;99.90
27900;DHT22;15243;50.726;7.080;2022-08-19T00:06:35;19.10;99.90
27900;DHT22;15243;50.726;7.080;2022-08-19T00:09:05;19.10;99.90
27900;DHT22;15243;50.726;7.080;2022-08-19T00:11:32;19.10;99.90
27900;DHT22;15243;50.726;7.080;2022-08-19T00:14:02;19.10;99.90
27900;DHT22;15243;50.726;7.080;2022-08-19T00:16:29;19.00;99.90
27900;DHT22;15243;50.726;7.080;2022-08-19T00:18:56;19.00;99.90
27900;DHT22;15243;50.726;7.080;2022-08-19T00:21:24;18.80;99.90
27900;DHT22;15243;50.726;7.080;2022-08-19T00:23:54;18.90;99.90
27900;DHT22;15243;50.726;7.080;2022-08-19T00:26:21;18.80;99.90
27900;DHT22;15243;50.726;7.080;2022-08-19T00:28:48;18.90;99.90
27900;DHT22;15243;50.726;7.080;2022-08-19T00:31:15;18.90;99.90
27900;DHT22;15243;50.726;7.080;2022-08-19T00:33:43;18.90;99.90
27900;DHT22;15243;50.726;7.080;2022-08-19T00:36:10;18.90;99.90
27900;DHT22;15243;50.726;7.080;2022-08-19T00:38:39;18.70;99.90
27900;DHT22;15243;50.726;7.080;2022-08-19T00:41:14;18.70;99.90
27900;DHT22;15243;50.726;7.080;2022-08-19T00:43:41;18.60;99.90
27900;DHT22;15243;50.726;7.080;2022-08-19T00:46:08;18.60;99.90
27900;DHT22;15243;50.726;7.080;2022-08-19T00:48:35;18.60;99.90
27900;DHT22;15243;50.726;7.080;2022-08-19T00:51:04;18.60;99.90
27900;DHT22;15243;50.726;7.080;2022-08-19T00:53:33;18.50;99.90
27900;DHT22;15243;50.726;7.080;2022-08-19T00:56:01;18.50;99.90
27900;DHT22;15243;50.726;7.080;2022-08-19T00:58:31;18.40;99.90
27900;DHT22;15243;50.726;7.080;2022-08-19T01:00:59;18.40;99.90
27900;DHT22;15243;50.726;7.080;2022-08-19T01:03:27;18.40;99.90
27900;DHT22;15243;50.726;7.080;2022-08-19T01:06:14;18.30;99.90
27900;DHT22;15243;50.726;7.080;2022-08-19T01:08:46;18.20;99.90
27900;DHT22;15243;50.726;7.080;2022-08-19T01:11:15;18.20;99.90
27900;DHT22;15243;50.726;7.080;2022-08-19T01:13:44;18.20;99.90
27900;DHT22;15243;50.726;7.080;2022-08-19T01:16:17;18.20;99.90
27900;DHT22;15243;50.726;7.080;2022-08-19T01:18:45;18.20;99.90
27900;DHT22;15243;50.726;7.080;2022-08-19T01:21:22;18.10;99.90
27900;DHT22;15243;50.726;7.080;2022-08-19T01:23:51;18.30;99.90
27900;DHT22;15243;50.726;7.080;2022-08-19T01:26:21;18.40;99.90
27900;DHT22;15243;50.726;7.080;2022-08-19T01:28:52;18.30;99.90
27900;DHT22;15243;50.726;7.080;2022-08-19T01:31:22;18.20;99.90
27900;DHT22;15243;50.726;7.080;2022-08-19T01:33:55;18.20;99.90
27900;DHT22;15243;50.726;7.080;2022-08-19T01:36:26;18.20;99.90
27900;DHT22;15243;50.726;7.080;2022-08-19T01:38:54;18.20;99.90
27900;DHT22;15243;50.726;7.080;2022-08-19T01:41:21;18.20;99.90
27900;DHT22;15243;50.726;7.080;2022-08-19T01:43:53;18.10;99.90
27900;DHT22;15243;50.726;7.080;2022-08-19T01:46:41;18.10;99.90
27900;DHT22;15243;50.726;7.080;2022-08-19T01:49:09;18.10;99.90
27900;DHT22;15243;50.726;7.080;2022-08-19T01:51:37;18.00;99.90
27900;DHT22;15243;50.726;7.080;2022-08-19T01:54:08;18.00;99.90
27900;DHT22;15243;50.726;7.080;2022-08-19T01:56:35;17.90;99.90
27900;DHT22;15243;50.726;7.080;2022-08-19T01:59:06;18.00;99.90
27900;DHT22;15243;50.726;7.080;2022-08-19T02:01:35;18.00;99.90
27900;DHT22;15243;50.726;7.080;2022-08-19T02:04:02;17.90;99.90
27900;DHT22;15243;50.726;7.080;2022-08-19T02:06:29;17.90;99.90
27900;DHT22;15243;50.726;7.080;2022-08-19T02:08:56;17.90;99.90
27900;DHT22;15243;50.726;7.080;2022-08-19T02:11:31;17.90;99.90
27900;DHT22;15243;50.726;7.080;2022-08-19T02:13:59;17.90;99.90
27900;DHT22;15243;50.726;7.080;2022-08-19T02:16:26;17.80;99.90
27900;DHT22;15243;50.726;7.080;2022-08-19T02:18:53;18.00;99.90
27900;DHT22;15243;50.726;7.080;2022-08-19T02:21:22;17.90;99.90
27900;DHT22;15243;50.726;7.080;2022-08-19T02:23:50;17.90;99.90
27900;DHT22;15243;50.726;7.080;2022-08-19T02:26:18;17.90;99.90
27900;DHT22;15243;50.726;7.080;2022-08-19T02:28:46;17.90;99.90
27900;DHT22;15243;50.726;7.080;2022-08-19T02:31:17;18.00;99.90
27900;DHT22;15243;50.726;7.080;2022-08-19T02:33:45;18.10;99.90
27900;DHT22;15243;50.726;7.080;2022-08-19T02:36:14;18.00;99.90
27900;DHT22;15243;50.726;7.080;2022-08-19T02:38:42;17.90;99.90
27900;DHT22;15243;50.726;7.080;2022-08-19T02:41:24;17.90;99.90
27900;DHT22;15243;50.726;7.080;2022-08-19T02:43:56;17.90;99.90
27900;DHT22;15243;50.726;7.080;2022-08-19T02:46:46;17.80;99.90
27900;DHT22;15243;50.726;7.080;2022-08-19T02:49:13;17.80;99.90
27900;DHT22;15243;50.726;7.080;2022-08-19T02:51:44;17.80;99.90
27900;DHT22;15243;50.726;7.080;2022-08-19T02:54:13;17.80;99.90
27900;DHT22;15243;50.726;7.080;2022-08-19T02:56:41;17.70;99.90
27900;DHT22;15243;50.726;7.080;2022-08-19T02:59:09;17.70;99.90
27900;DHT22;15243;50.726;7.080;2022-08-19T03:01:38;17.70;99.90
27900;DHT22;15243;50.726;7.080;2022-08-19T03:04:08;17.70;99.90
27900;DHT22;15243;50.726;7.080;2022-08-19T03:06:37;17.70;99.90
27900;DHT22;15243;50.726;7.080;2022-08-19T03:09:04;17.70;99.90
27900;DHT22;15243;50.726;7.080;2022-08-19T03:11:32;17.70;99.90
27900;DHT22;15243;50.726;7.080;2022-08-19T03:14:00;17.60;99.90
27900;DHT22;15243;50.726;7.080;2022-08-19T03:16:30;17.50;99.90
27900;DHT22;15243;50.726;7.080;2022-08-19T03:19:00;17.50;99.90
27900;DHT22;15243;50.726;7.080;2022-08-19T03:21:31;17.50;99.90
27900;DHT22;15243;50.726;7.080;2022-08-19T03:24:02;17.60;99.90
27900;DHT22;15243;50.726;7.080;2022-08-19T03:26:30;17.60;99.90
27900;DHT22;15243;50.726;7.080;2022-08-19T03:28:57;17.70;99.90
27900;DHT22;15243;50.726;7.080;2022-08-19T03:31:26;17.70;99.90
27900;DHT22;15243;50.726;7.080;2022-08-19T03:34:19;17.60;99.90
27900;DHT22;15243;50.726;7.080;2022-08-19T03:36:47;17.60;99.90
27900;DHT22;15243;50.726;7.080;2022-08-19T03:39:15;17.50;99.90
27900;DHT22;15243;50.726;7.080;2022-08-19T03:41:44;17.60;99.90
27900;DHT22;15243;50.726;7.080;2022-08-19T03:44:19;17.50;99.90
27900;DHT22;15243;50.726;7.080;2022-08-19T03:46:50;17.60;99.90
27900;DHT22;15243;50.726;7.080;2022-08-19T03:49:18;17.70;99.90
27900;DHT22;15243;50.726;7.080;2022-08-19T03:51:48;17.80;99.90
27900;DHT22;15243;50.726;7.080;2022-08-19T03:54:18;17.90;99.90
27900;DHT22;15243;50.726;7.080;2022-08-19T03:56:47;17.90;99.90
27900;DHT22;15243;50.726;7.080;2022-08-19T03:59:24;17.70;99.90
27900;DHT22;15243;50.726;7.080;2022-08-19T04:01:57;17.70;99.90
27900;DHT22;15243;50.726;7.080;2022-08-19T04:04:24;17.60;99.90
27900;DHT22;15243;50.726;7.080;2022-08-19T04:06:55;17.60;99.90
27900;DHT22;15243;50.726;7.080;2022-08-19T04:09:22;17.50;99.90
27900;DHT22;15243;50.726;7.080;2022-08-19T04:11:52;17.50;99.90
27900;DHT22;15243;50.726;7.080;2022-08-19T04:14:23;17.50;99.90
27900;DHT22;15243;50.726;7.080;2022-08-19T04:16:51;17.50;99.90
27900;DHT22;15243;50.726;7.080;2022-08-19T04:19:19;17.40;99.90
27900;DHT22;15243;50.726;7.080;2022-08-19T04:21:52;17.40;99.90
27900;DHT22;15243;50.726;7.080;2022-08-19T04:24:20;17.50;99.90
27900;DHT22;15243;50.726;7.080;2022-08-19T04:26:48;17.70;99.90
27900;DHT22;15243;50.726;7.080;2022-08-19T04:29:19;17.70;99.90
27900;DHT22;15243;50.726;7.080;2022-08-19T04:31:48;17.70;99.90
27900;DHT22;15243;50.726;7.080;2022-08-19T04:34:18;17.70;99.90
27900;DHT22;15243;50.726;7.080;2022-08-19T04:36:49;17.50;99.90
27900;DHT22;15243;50.726;7.080;2022-08-19T04:39:29;17.60;99.90
27900;DHT22;15243;50.726;7.080;2022-08-19T04:42:16;17.50;99.90
27900;DHT22;15243;50.726;7.080;2022-08-19T04:45:05;17.50;99.90
27900;DHT22;15243;50.726;7.080;2022-08-19T04:47:35;17.40;99.90
27900;DHT22;15243;50.726;7.080;2022-08-19T04:50:23;17.40;99.90
27900;DHT22;15243;50.726;7.080;2022-08-19T04:52:51;17.40;99.90
27900;DHT22;15243;50.726;7.080;2022-08-19T04:55:19;17.40;99.90
27900;DHT22;15243;50.726;7.080;2022-08-19T04:57:46;17.40;99.90
27900;DHT22;15243;50.726;7.080;2022-08-19T05:00:13;17.40;99.90
27900;DHT22;15243;50.726;7.080;2022-08-19T05:02:40;17.40;99.90
27900;DHT22;15243;50.726;7.080;2022-08-19T05:05:08;17.40;99.90
27900;DHT22;15243;50.726;7.080;2022-08-19T05:07:35;17.40;99.90
27900;DHT22;15243;50.726;7.080;2022-08-19T05:10:04;17.40;99.90
27900;DHT22;15243;50.726;7.080;2022-08-19T05:12:32;17.50;99.90
27900;DHT22;15243;50.726;7.080;2022-08-19T05:14:59;17.50;99.90
27900;DHT22;15243;50.726;7.080;2022-08-19T05:17:27;17.50;99.90
27900;DHT22;15243;50.726;7.080;2022-08-19T05:19:57;17.60;99.90
27900;DHT22;15243;50.726;7.080;2022-08-19T05:22:44;17.80;99.90
27900;DHT22;15243;50.726;7.080;2022-08-19T05:25:14;17.80;99.90
27900;DHT22;15243;50.726;7.080;2022-08-19T05:27:45;17.70;99.90
27900;DHT22;15243;50.726;7.080;2022-08-19T05:30:13;17.60;99.90
27900;DHT22;15243;50.726;7.080;2022-08-19T05:32:40;17.70;99.90
27900;DHT22;15243;50.726;7.080;2022-08-19T05:35:07;17.70;99.90
27900;DHT22;15243;50.726;7.080;2022-08-19T05:37:35;17.80;99.90
27900;DHT22;15243;50.726;7.080;2022-08-19T05:40:03;17.90;99.90
27900;DHT22;15243;50.726;7.080;2022-08-19T05:42:30;17.90;99.90
27900;DHT22;15243;50.726;7.080;2022-08-19T05:44:57;18.00;99.90
27900;DHT22;15243;50.726;7.080;2022-08-19T05:47:24;18.00;99.90
27900;DHT22;15243;50.726;7.080;2022-08-19T05:49:51;18.00;99.90
27900;DHT22;15243;50.726;7.080;2022-08-19T05:52:18;18.10;99.90
27900;DHT22;15243;50.726;7.080;2022-08-19T05:54:52;18.10;99.90
27900;DHT22;15243;50.726;7.080;2022-08-19T05:57:23;18.00;99.90
27900;DHT22;15243;50.726;7.080;2022-08-19T05:59:51;18.00;99.90
27900;DHT22;15243;50.726;7.080;2022-08-19T06:02:25;18.00;99.90
27900;DHT22;15243;50.726;7.080;2022-08-19T06:04:52;18.10;99.90
27900;DHT22;15243;50.726;7.080;2022-08-19T06:07:19;18.10;99.90
27900;DHT22;15243;50.726;7.080;2022-08-19T06:09:46;18.20;99.90
27900;DHT22;15243;50.726;7.080;2022-08-19T06:12:31;18.20;99.90
27900;DHT22;15243;50.726;7.080;2022-08-19T06:15:07;18.30;99.90
27900;DHT22;15243;50.726;7.080;2022-08-19T06:17:35;18.30;99.90
27900;DHT22;15243;50.726;7.080;2022-08-19T06:20:07;18.30;99.90
27900;DHT22;15243;50.726;7.080;2022-08-19T06:22:48;18.30;99.90
27900;DHT22;15243;50.726;7.080;2022-08-19T06:25:18;18.20;99.90
27900;DHT22;15243;50.726;7.080;2022-08-19T06:27:45;18.20;99.90
27900;DHT22;15243;50.726;7.080;2022-08-19T06:30:32;18.30;99.90
27900;DHT22;15243;50.726;7.080;2022-08-19T06:32:59;18.50;99.90
27900;DHT22;15243;50.726;7.080;2022-08-19T06:35:26;18.60;99.90
27900;DHT22;15243;50.726;7.080;2022-08-19T06:37:53;18.60;99.90
27900;DHT22;15243;50.726;7.080;2022-08-19T06:40:21;18.70;99.90
27900;DHT22;15243;50.726;7.080;2022-08-19T06:42:48;18.60;99.90
27900;DHT22;15243;50.726;7.080;2022-08-19T06:45:22;18.70;99.90
27900;DHT22;15243;50.726;7.080;2022-08-19T06:48:00;18.80;99.90
27900;DHT22;15243;50.726;7.080;2022-08-19T06:50:27;18.80;99.90
27900;DHT22;15243;50.726;7.080;2022-08-19T06:52:54;18.90;99.90
27900;DHT22;15243;50.726;7.080;2022-08-19T06:55:21;18.90;99.90
27900;DHT22;15243;50.726;7.080;2022-08-19T06:57:49;19.00;99.90
27900;DHT22;15243;50.726;7.080;2022-08-19T07:00:20;19.00;99.90
27900;DHT22;15243;50.726;7.080;2022-08-19T07:02:47;19.10;99.90
27900;DHT22;15243;50.726;7.080;2022-08-19T07:05:24;19.10;99.90
27900;DHT22;15243;50.726;7.080;2022-08-19T07:07:51;19.10;99.90
27900;DHT22;15243;50.726;7.080;2022-08-19T07:10:23;19.10;99.90
27900;DHT22;15243;50.726;7.080;2022-08-19T07:12:51;19.20;99.90
27900;DHT22;15243;50.726;7.080;2022-08-19T07:15:18;19.30;99.90
27900;DHT22;15243;50.726;7.080;2022-08-19T07:17:47;19.30;99.90
27900;DHT22;15243;50.726;7.080;2022-08-19T07:20:18;19.30;99.90
27900;DHT22;15243;50.726;7.080;2022-08-19T07:22:45;19.50;99.90
27900;DHT22;15243;50.726;7.080;2022-08-19T07:25:12;19.80;99.90
27900;DHT22;15243;50.726;7.080;2022-08-19T07:27:39;19.80;99.90
27900;DHT22;15243;50.726;7.080;2022-08-19T07:30:08;20.10;99.90
27900;DHT22;15243;50.726;7.080;2022-08-19T07:32:38;20.30;99.90
27900;DHT22;15243;50.726;7.080;2022-08-19T07:35:05;20.40;99.90
27900;DHT22;15243;50.726;7.080;2022-08-19T07:37:32;20.60;99.90
27900;DHT22;15243;50.726;7.080;2022-08-19T07:40:04;20.70;99.90
27900;DHT22;15243;50.726;7.080;2022-08-19T07:42:31;20.90;99.90
27900;DHT22;15243;50.726;7.080;2022-08-19T07:44:58;20.80;99.90
27900;DHT22;15243;50.726;7.080;2022-08-19T07:47:25;21.00;99.90
27900;DHT22;15243;50.726;7.080;2022-08-19T07:50:14;21.20;99.90
27900;DHT22;15243;50.726;7.080;2022-08-19T07:52:41;21.50;99.90
27900;DHT22;15243;50.726;7.080;2022-08-19T07:55:21;21.50;99.90
27900;DHT22;15243;50.726;7.080;2022-08-19T07:58:10;21.70;99.90
27900;DHT22;15243;50.726;7.080;2022-08-19T08:00:37;21.70;99.90
27900;DHT22;15243;50.726;7.080;2022-08-19T08:03:04;21.80;99.90
27900;DHT22;15243;50.726;7.080;2022-08-19T08:05:31;21.80;99.90
27900;DHT22;15243;50.726;7.080;2022-08-19T08:08:17;21.90;99.90
27900;DHT22;15243;50.726;7.080;2022-08-19T08:11:03;21.80;99.90
27900;DHT22;15243;50.726;7.080;2022-08-19T08:13:34;22.00;99.90
27900;DHT22;15243;50.726;7.080;2022-08-19T08:16:04;22.00;99.90
27900;DHT22;15243;50.726;7.080;2022-08-19T08:18:35;21.70;99.90
27900;DHT22;15243;50.726;7.080;2022-08-19T08:21:08;21.70;99.90
27900;DHT22;15243;50.726;7.080;2022-08-19T08:23:35;22.10;99.90
27900;DHT22;15243;50.726;7.080;2022-08-19T08:26:05;22.10;99.90
27900;DHT22;15243;50.726;7.080;2022-08-19T08:28:32;22.30;99.90
27900;DHT22;15243;50.726;7.080;2022-08-19T08:30:59;22.30;99.90
27900;DHT22;15243;50.726;7.080;2022-08-19T08:33:28;22.40;99.90
27900;DHT22;15243;50.726;7.080;2022-08-19T08:36:04;22.50;99.90
27900;DHT22;15243;50.726;7.080;2022-08-19T08:38:31;22.50;99.90
27900;DHT22;15243;50.726;7.080;2022-08-19T08:43:51;22.70;99.90
27900;DHT22;15243;50.726;7.080;2022-08-19T08:46:39;22.70;99.90
27900;DHT22;15243;50.726;7.080;2022-08-19T08:49:48;22.90;99.90
27900;DHT22;15243;50.726;7.080;2022-08-19T08:52:28;23.00;99.90
27900;DHT22;15243;50.726;7.080;2022-08-19T08:55:00;22.60;99.90
27900;DHT22;15243;50.726;7.080;2022-08-19T09:00:12;22.70;99.90
27900;DHT22;15243;50.726;7.080;2022-08-19T09:02:42;22.90;99.90
27900;DHT22;15243;50.726;7.080;2022-08-19T09:05:10;23.00;99.90
27900;DHT22;15243;50.726;7.080;2022-08-19T09:16:21;23.30;99.90
27900;DHT22;15243;50.726;7.080;2022-08-19T09:19:05;23.20;99.90
27900;DHT22;15243;50.726;7.080;2022-08-19T09:21:34;23.30;99.90
27900;DHT22;15243;50.726;7.080;2022-08-19T09:24:02;23.30;99.90
27900;DHT22;15243;50.726;7.080;2022-08-19T09:26:30;23.40;99.90
27900;DHT22;15243;50.726;7.080;2022-08-19T09:29:18;23.50;99.90
27900;DHT22;15243;50.726;7.080;2022-08-19T09:31:48;23.50;99.90
27900;DHT22;15243;50.726;7.080;2022-08-19T09:34:16;23.60;99.90
27900;DHT22;15243;50.726;7.080;2022-08-19T09:36:48;23.40;99.90
27900;DHT22;15243;50.726;7.080;2022-08-19T09:39:20;23.60;99.90
27900;DHT22;15243;50.726;7.080;2022-08-19T09:41:48;23.60;99.90
27900;DHT22;15243;50.726;7.080;2022-08-19T09:44:17;23.60;99.90
27900;DHT22;15243;50.726;7.080;2022-08-19T09:46:44;23.80;99.90
27900;DHT22;15243;50.726;7.080;2022-08-19T09:49:15;23.60;99.90
27900;DHT22;15243;50.726;7.080;2022-08-19T09:51:44;23.90;99.90
27900;DHT22;15243;50.726;7.080;2022-08-19T09:54:17;24.10;99.90
27900;DHT22;15243;50.726;7.080;2022-08-19T09:56:51;24.30;99.90
27900;DHT22;15243;50.726;7.080;2022-08-19T09:59:18;24.40;99.90
27900;DHT22;15243;50.726;7.080;2022-08-19T10:01:45;24.30;99.90
27900;DHT22;15243;50.726;7.080;2022-08-19T10:04:13;24.40;99.90
27900;DHT22;15243;50.726;7.080;2022-08-19T10:06:49;24.00;99.90
27900;DHT22;15243;50.726;7.080;2022-08-19T10:09:19;24.20;99.90
27900;DHT22;15243;50.726;7.080;2022-08-19T10:12:01;24.30;99.90
27900;DHT22;15243;50.726;7.080;2022-08-19T10:14:28;24.30;99.90
27900;DHT22;15243;50.726;7.080;2022-08-19T10:16:55;24.30;99.90
27900;DHT22;15243;50.726;7.080;2022-08-19T10:19:25;24.40;99.90
27900;DHT22;15243;50.726;7.080;2022-08-19T10:21:53;24.60;99.90
27900;DHT22;15243;50.726;7.080;2022-08-19T10:24:26;24.70;99.90
27900;DHT22;15243;50.726;7.080;2022-08-19T10:26:55;24.30;99.90
27900;DHT22;15243;50.726;7.080;2022-08-19T10:29:26;24.40;99.90
27900;DHT22;15243;50.726;7.080;2022-08-19T10:32:04;24.70;99.90
27900;DHT22;15243;50.726;7.080;2022-08-19T10:34:38;24.90;99.90
27900;DHT22;15243;50.726;7.080;2022-08-19T10:37:16;25.00;99.90
27900;DHT22;15243;50.726;7.080;2022-08-19T10:39:56;25.20;99.90
27900;DHT22;15243;50.726;7.080;2022-08-19T10:42:23;25.20;99.90
27900;DHT22;15243;50.726;7.080;2022-08-19T10:44:50;25.40;99.90
27900;DHT22;15243;50.726;7.080;2022-08-19T10:47:18;25.30;99.90
27900;DHT22;15243;50.726;7.080;2022-08-19T10:49:53;25.50;99.90
27900;DHT22;15243;50.726;7.080;2022-08-19T10:52:41;25.60;99.90
27900;DHT22;15243;50.726;7.080;2022-08-19T10:55:18;25.40;99.90
27900;DHT22;15243;50.726;7.080;2022-08-19T10:58:08;25.50;99.90
27900;DHT22;15243;50.726;7.080;2022-08-19T11:00:36;25.20;99.90
27900;DHT22;15243;50.726;7.080;2022-08-19T11:03:04;24.90;99.90
27900;DHT22;15243;50.726;7.080;2022-08-19T11:05:30;24.40;99.90
27900;DHT22;15243;50.726;7.080;2022-08-19T11:08:06;25.00;99.90
27900;DHT22;15243;50.726;7.080;2022-08-19T11:10:53;25.60;99.90
27900;DHT22;15243;50.726;7.080;2022-08-19T11:13:23;25.70;99.90
27900;DHT22;15243;50.726;7.080;2022-08-19T11:16:02;25.90;99.90
27900;DHT22;15243;50.726;7.080;2022-08-19T11:18:38;26.10;99.90
27900;DHT22;15243;50.726;7.080;2022-08-19T11:21:19;25.90;99.90
27900;DHT22;15243;50.726;7.080;2022-08-19T11:23:49;25.90;99.90
27900;DHT22;15243;50.726;7.080;2022-08-19T11:26:17;25.80;99.90
27900;DHT22;15243;50.726;7.080;2022-08-19T11:28:46;25.50;99.90
27900;DHT22;15243;50.726;7.080;2022-08-19T11:31:16;25.70;99.90
27900;DHT22;15243;50.726;7.080;2022-08-19T11:33:43;25.40;99.90
27900;DHT22;15243;50.726;7.080;2022-08-19T11:36:14;25.50;99.90
27900;DHT22;15243;50.726;7.080;2022-08-19T11:38:41;25.80;99.90
27900;DHT22;15243;50.726;7.080;2022-08-19T11:41:09;26.40;99.90
27900;DHT22;15243;50.726;7.080;2022-08-19T11:43:36;26.70;99.90
27900;DHT22;15243;50.726;7.080;2022-08-19T11:46:08;26.70;99.90
27900;DHT22;15243;50.726;7.080;2022-08-19T11:48:36;26.30;99.90
27900;DHT22;15243;50.726;7.080;2022-08-19T11:51:06;26.50;99.90
27900;DHT22;15243;50.726;7.080;2022-08-19T11:53:33;26.00;99.90
27900;DHT22;15243;50.726;7.080;2022-08-19T11:56:01;26.10;99.90
27900;DHT22;15243;50.726;7.080;2022-08-19T11:58:29;26.00;99.90
27900;DHT22;15243;50.726;7.080;2022-08-19T12:00:56;25.80;99.90
27900;DHT22;15243;50.726;7.080;2022-08-19T12:03:24;26.20;99.90
27900;DHT22;15243;50.726;7.080;2022-08-19T12:05:52;26.30;99.90
27900;DHT22;15243;50.726;7.080;2022-08-19T12:08:19;26.80;99.90
27900;DHT22;15243;50.726;7.080;2022-08-19T12:10:46;26.70;99.90
27900;DHT22;15243;50.726;7.080;2022-08-19T12:13:13;26.40;99.90
27900;DHT22;15243;50.726;7.080;2022-08-19T12:15:46;26.40;99.90
27900;DHT22;15243;50.726;7.080;2022-08-19T12:18:14;26.30;99.90
27900;DHT22;15243;50.726;7.080;2022-08-19T12:20:42;26.80;99.90
27900;DHT22;15243;50.726;7.080;2022-08-19T12:23:09;27.10;99.90
27900;DHT22;15243;50.726;7.080;2022-08-19T12:25:38;26.50;99.90
27900;DHT22;15243;50.726;7.080;2022-08-19T12:28:10;26.10;99.90
27900;DHT22;15243;50.726;7.080;2022-08-19T12:30:37;26.40;99.90
27900;DHT22;15243;50.726;7.080;2022-08-19T12:33:05;26.80;99.90
27900;DHT22;15243;50.726;7.080;2022-08-19T12:35:31;27.20;99.90
27900;DHT22;15243;50.726;7.080;2022-08-19T12:37:58;27.10;99.90
27900;DHT22;15243;50.726;7.080;2022-08-19T12:40:28;27.40;99.90
27900;DHT22;15243;50.726;7.080;2022-08-19T12:42:55;27.00;99.90
27900;DHT22;15243;50.726;7.080;2022-08-19T12:45:22;26.80;99.90
27900;DHT22;15243;50.726;7.080;2022-08-19T12:47:49;27.30;99.90
27900;DHT22;15243;50.726;7.080;2022-08-19T12:50:20;27.40;99.90
27900;DHT22;15243;50.726;7.080;2022-08-19T12:52:48;27.70;99.90
27900;DHT22;15243;50.726;7.080;2022-08-19T12:55:15;27.70;99.90
27900;DHT22;15243;50.726;7.080;2022-08-19T12:57:42;27.60;99.90
27900;DHT22;15243;50.726;7.080;2022-08-19T13:00:12;27.60;99.90
27900;DHT22;15243;50.726;7.080;2022-08-19T13:02:42;27.90;99.90
27900;DHT22;15243;50.726;7.080;2022-08-19T13:05:15;27.90;99.90
27900;DHT22;15243;50.726;7.080;2022-08-19T13:07:43;27.70;99.90
27900;DHT22;15243;50.726;7.080;2022-08-19T13:10:15;28.00;99.90
27900;DHT22;15243;50.726;7.080;2022-08-19T13:12:44;28.30;99.90
27900;DHT22;15243;50.726;7.080;2022-08-19T13:15:12;27.60;99.90
27900;DHT22;15243;50.726;7.080;2022-08-19T13:17:41;27.60;99.90
27900;DHT22;15243;50.726;7.080;2022-08-19T13:20:09;27.90;99.90
27900;DHT22;15243;50.726;7.080;2022-08-19T13:22:37;28.00;99.90
27900;DHT22;15243;50.726;7.080;2022-08-19T13:25:06;27.90;99.90
27900;DHT22;15243;50.726;7.080;2022-08-19T13:27:33;28.00;99.90
27900;DHT22;15243;50.726;7.080;2022-08-19T13:30:01;28.30;99.90
27900;DHT22;15243;50.726;7.080;2022-08-19T13:32:47;28.40;99.90
27900;DHT22;15243;50.726;7.080;2022-08-19T13:35:32;28.90;99.90
27900;DHT22;15243;50.726;7.080;2022-08-19T13:37:59;29.20;99.90
27900;DHT22;15243;50.726;7.080;2022-08-19T13:40:28;29.30;99.90
27900;DHT22;15243;50.726;7.080;2022-08-19T13:42:56;29.30;99.90
27900;DHT22;15243;50.726;7.080;2022-08-19T13:45:25;29.60;99.90
27900;DHT22;15243;50.726;7.080;2022-08-19T13:47:55;29.10;99.90
27900;DHT22;15243;50.726;7.080;2022-08-19T13:50:29;29.20;99.90
27900;DHT22;15243;50.726;7.080;2022-08-19T13:52:57;29.10;99.90
27900;DHT22;15243;50.726;7.080;2022-08-19T13:55:25;28.70;99.90
27900;DHT22;15243;50.726;7.080;2022-08-19T13:57:54;28.40;99.90
27900;DHT22;15243;50.726;7.080;2022-08-19T14:00:23;28.60;99.90
27900;DHT22;15243;50.726;7.080;2022-08-19T14:02:53;28.50;99.90
27900;DHT22;15243;50.726;7.080;2022-08-19T14:05:20;28.80;99.90
27900;DHT22;15243;50.726;7.080;2022-08-19T14:07:47;29.40;99.90
27900;DHT22;15243;50.726;7.080;2022-08-19T14:10:16;30.20;99.90
27900;DHT22;15243;50.726;7.080;2022-08-19T14:12:44;30.10;99.90
27900;DHT22;15243;50.726;7.080;2022-08-19T14:15:12;30.10;99.90
27900;DHT22;15243;50.726;7.080;2022-08-19T14:17:40;29.50;99.90
27900;DHT22;15243;50.726;7.080;2022-08-19T14:20:09;29.70;99.90
27900;DHT22;15243;50.726;7.080;2022-08-19T14:22:45;29.50;99.90
27900;DHT22;15243;50.726;7.080;2022-08-19T14:25:16;30.10;99.90
27900;DHT22;15243;50.726;7.080;2022-08-19T14:27:44;30.30;99.90
27900;DHT22;15243;50.726;7.080;2022-08-19T14:30:13;30.10;99.90
27900;DHT22;15243;50.726;7.080;2022-08-19T14:32:41;30.90;99.90
27900;DHT22;15243;50.726;7.080;2022-08-19T14:35:11;32.10;99.90
27900;DHT22;15243;50.726;7.080;2022-08-19T14:37:39;31.60;97.10
27900;DHT22;15243;50.726;7.080;2022-08-19T14:40:13;31.90;97.10
27900;DHT22;15243;50.726;7.080;2022-08-19T14:42:40;31.90;97.50
27900;DHT22;15243;50.726;7.080;2022-08-19T14:45:09;33.10;96.00
27900;DHT22;15243;50.726;7.080;2022-08-19T14:47:37;32.70;91.70
27900;DHT22;15243;50.726;7.080;2022-08-19T14:50:07;31.90;91.60
27900;DHT22;15243;50.726;7.080;2022-08-19T14:52:43;31.80;92.00
27900;DHT22;15243;50.726;7.080;2022-08-19T14:55:10;30.50;92.90
27900;DHT22;15243;50.726;7.080;2022-08-19T14:57:37;30.40;94.00
27900;DHT22;15243;50.726;7.080;2022-08-19T15:00:07;29.90;95.10
27900;DHT22;15243;50.726;7.080;2022-08-19T15:02:39;29.60;96.60
27900;DHT22;15243;50.726;7.080;2022-08-19T15:05:06;29.00;96.50
27900;DHT22;15243;50.726;7.080;2022-08-19T15:07:33;28.90;98.20
27900;DHT22;15243;50.726;7.080;2022-08-19T15:10:01;29.20;97.90
27900;DHT22;15243;50.726;7.080;2022-08-19T15:12:27;28.30;97.70
27900;DHT22;15243;50.726;7.080;2022-08-19T15:14:54;28.70;98.30
27900;DHT22;15243;50.726;7.080;2022-08-19T15:17:22;28.90;97.10
27900;DHT22;15243;50.726;7.080;2022-08-19T15:20:13;28.90;99.10
27900;DHT22;15243;50.726;7.080;2022-08-19T15:22:40;28.50;99.00
27900;DHT22;15243;50.726;7.080;2022-08-19T15:25:12;28.80;97.20
27900;DHT22;15243;50.726;7.080;2022-08-19T15:27:40;28.90;97.60
27900;DHT22;15243;50.726;7.080;2022-08-19T15:30:08;28.80;96.80
27900;DHT22;15243;50.726;7.080;2022-08-19T15:32:36;28.50;97.30
27900;DHT22;15243;50.726;7.080;2022-08-19T15:35:04;28.50;97.50
27900;DHT22;15243;50.726;7.080;2022-08-19T15:37:32;28.50;98.20
27900;DHT22;15243;50.726;7.080;2022-08-19T15:40:04;28.70;96.70
27900;DHT22;15243;50.726;7.080;2022-08-19T15:42:32;28.70;96.20
27900;DHT22;15243;50.726;7.080;2022-08-19T15:45:02;28.60;96.20
27900;DHT22;15243;50.726;7.080;2022-08-19T15:47:29;29.20;94.80
27900;DHT22;15243;50.726;7.080;2022-08-19T15:50:25;29.10;96.80
27900;DHT22;15243;50.726;7.080;2022-08-19T15:52:57;28.90;97.10
27900;DHT22;15243;50.726;7.080;2022-08-19T15:55:28;29.00;96.20
27900;DHT22;15243;50.726;7.080;2022-08-19T15:58:09;28.20;96.70
27900;DHT22;15243;50.726;7.080;2022-08-19T16:01:01;28.10;98.20
27900;DHT22;15243;50.726;7.080;2022-08-19T16:03:50;27.80;99.90
27900;DHT22;15243;50.726;7.080;2022-08-19T16:07:01;27.50;99.90